createdAt,value
2022-10-05T00:02:15.721Z,9.44
2022-10-05T00:07:20.470Z,9.19
2022-10-05T00:12:24.274Z,8.96
2022-10-05T00:17:30.467Z,9.06
2022-10-05T00:22:34.784Z,9.05
2022-10-05T00:27:38.941Z,9.61
2022-10-05T00:32:43.130Z,9.09
2022-10-05T00:37:47.008Z,9.09
2022-10-05T00:43:01.790Z,9.28
2022-10-05T00:48:14.757Z,9.35
2022-10-05T00:53:32.295Z,9.45
2022-10-05T00:58:49.378Z,9.98
2022-10-05T01:04:03.860Z,10.28
2022-10-05T01:09:13.761Z,10.60
2022-10-05T01:14:23.005Z,10.86
2022-10-05T01:19:43.924Z,9.22
2022-10-05T01:25:01.358Z,9.32
2022-10-05T01:30:09.813Z,9.43
2022-10-05T01:35:26.144Z,8.17
2022-10-05T01:40:37.529Z,8.52
2022-10-05T01:45:53.255Z,9.26
2022-10-05T01:51:07.099Z,8.62
2022-10-05T01:56:20.370Z,9.71
2022-10-05T02:01:32.363Z,8.86
2022-10-05T02:06:40.032Z,9.57
2022-10-05T02:11:48.233Z,8.19
2022-10-05T02:16:55.610Z,7.74
2022-10-05T02:22:04.713Z,7.66
2022-10-05T02:27:09.632Z,7.91
2022-10-05T02:32:16.994Z,8.97
2022-10-05T02:37:30.253Z,9.34
2022-10-05T02:42:41.427Z,9.85
2022-10-05T02:47:54.029Z,10.18
2022-10-05T02:53:11.245Z,9.10
2022-10-05T02:58:17.023Z,7.90
2022-10-05T03:03:29.997Z,8.14
2022-10-05T03:08:37.992Z,8.50
2022-10-05T03:13:52.611Z,9.28
2022-10-05T03:19:10.226Z,9.56
2022-10-05T03:24:34.601Z,9.57
2022-10-05T03:29:46.576Z,9.61
2022-10-05T03:34:58.371Z,9.69
2022-10-05T03:40:07.210Z,9.97
2022-10-05T03:45:22.662Z,9.87
2022-10-05T03:50:40.613Z,9.64
2022-10-05T03:55:48.221Z,9.73
2022-10-05T04:00:54.903Z,9.71
2022-10-05T04:06:03.444Z,9.58
2022-10-05T04:11:13.337Z,9.63
2022-10-05T04:16:19.758Z,9.70
2022-10-05T04:21:29.382Z,9.61
2022-10-05T04:26:37.066Z,9.57
2022-10-05T04:31:59.734Z,9.47
2022-10-05T04:37:07.904Z,9.62
2022-10-05T04:42:16.818Z,9.41
2022-10-05T04:47:37.084Z,8.72
2022-10-05T04:52:50.110Z,9.09
2022-10-05T04:58:02.388Z,9.36
2022-10-05T05:03:23.704Z,9.47
2022-10-05T05:08:46.889Z,9.56
2022-10-05T05:14:16.968Z,9.54
2022-10-05T05:19:33.306Z,9.42
2022-10-05T05:24:49.274Z,9.53
2022-10-05T05:30:01.715Z,9.55
2022-10-05T05:35:25.176Z,7.18
2022-10-05T05:40:34.284Z,7.52
2022-10-05T05:45:41.558Z,8.55
2022-10-05T05:50:56.313Z,7.60
2022-10-05T05:56:05.167Z,7.31
2022-10-05T06:01:31.714Z,7.38
2022-10-05T06:06:40.871Z,8.52
2022-10-05T06:11:49.610Z,9.07
2022-10-05T06:16:56.243Z,9.57
2022-10-05T06:22:05.885Z,9.88
2022-10-05T06:27:27.826Z,9.71
2022-10-05T06:32:34.902Z,9.60
2022-10-05T06:37:57.769Z,10.43
2022-10-05T06:43:17.233Z,10.85
2022-10-05T06:48:30.360Z,10.80
2022-10-05T06:53:40.792Z,11.14
2022-10-05T06:58:52.167Z,11.37
2022-10-05T07:04:09.459Z,12.00
2022-10-05T07:09:27.742Z,12.21
2022-10-05T07:14:52.882Z,12.34
2022-10-05T07:20:04.265Z,12.80
2022-10-05T07:25:13.321Z,13.13
2022-10-05T07:30:18.095Z,13.07
2022-10-05T07:35:46.576Z,13.45
2022-10-05T07:40:54.062Z,13.39
2022-10-05T07:46:04.445Z,14.04
2022-10-05T07:51:13.281Z,14.15
2022-10-05T07:56:24.542Z,14.48
2022-10-05T08:01:32.147Z,14.77
2022-10-05T08:06:45.532Z,14.84
2022-10-05T08:11:56.970Z,15.29
2022-10-05T08:17:07.140Z,15.61
2022-10-05T08:22:13.973Z,15.67
2022-10-05T08:27:24.566Z,16.20
2022-10-05T08:32:34.018Z,16.12
2022-10-05T08:37:41.546Z,15.89
2022-10-05T08:43:06.858Z,16.37
2022-10-05T08:48:42.796Z,16.91
2022-10-05T08:54:19.372Z,17.12
2022-10-05T08:59:41.086Z,16.70
2022-10-05T09:04:59.082Z,16.95
2022-10-05T09:10:42.387Z,16.79
2022-10-05T09:16:39.127Z,16.70
2022-10-05T09:21:43.378Z,17.40
2022-10-05T09:26:58.340Z,17.44
2022-10-05T09:32:16.244Z,18.02
2022-10-05T09:37:48.078Z,18.60
2022-10-05T09:43:17.531Z,18.56
2022-10-05T09:48:56.891Z,18.38
2022-10-05T09:54:36.945Z,18.49
2022-10-05T10:00:12.227Z,18.73
2022-10-05T10:05:54.059Z,18.99
2022-10-05T10:11:12.705Z,19.66
2022-10-05T10:16:28.224Z,19.20
2022-10-05T10:22:11.246Z,20.41
2022-10-05T10:27:27.623Z,22.25
2022-10-05T10:33:04.258Z,22.38
2022-10-05T10:38:40.363Z,24.01
2022-10-05T10:44:05.222Z,26.17
2022-10-05T10:49:20.812Z,27.50
2022-10-05T10:54:52.712Z,28.93
2022-10-05T11:00:37.510Z,31.02
2022-10-05T11:06:04.212Z,30.85
2022-10-05T11:11:20.689Z,32.34
2022-10-05T11:16:47.846Z,33.62
2022-10-05T11:22:13.662Z,33.22
2022-10-05T11:27:34.126Z,32.49
2022-10-05T11:33:18.607Z,34.81
2022-10-05T11:38:41.088Z,36.44
2022-10-05T11:44:13.482Z,32.28
2022-10-05T11:49:31.492Z,34.44
2022-10-05T11:55:11.352Z,34.50
2022-10-05T12:00:19.405Z,35.88
2022-10-05T12:05:27.163Z,36.95
2022-10-05T12:10:37.776Z,33.38
2022-10-05T12:15:49.095Z,35.11
2022-10-05T12:20:57.428Z,34.05
2022-10-05T12:26:05.878Z,34.80
2022-10-05T12:31:20.435Z,35.34
2022-10-05T12:36:59.303Z,34.19
2022-10-05T12:42:09.284Z,33.58
2022-10-05T12:47:21.123Z,37.71
2022-10-05T12:52:45.512Z,38.00
2022-10-05T12:58:00.398Z,37.46
2022-10-05T13:03:13.635Z,36.38
2022-10-05T13:08:25.561Z,37.65
2022-10-05T13:13:44.304Z,34.87
2022-10-05T13:19:05.767Z,34.76
2022-10-05T13:24:18.575Z,34.72
2022-10-05T13:29:30.249Z,33.91
2022-10-05T13:34:40.491Z,36.92
2022-10-05T13:39:57.751Z,35.49
2022-10-05T13:45:11.483Z,38.72
2022-10-05T13:50:20.192Z,36.07
2022-10-05T13:55:35.694Z,37.91
2022-10-05T14:00:46.936Z,36.36
2022-10-05T14:05:57.705Z,34.16
2022-10-05T14:11:02.887Z,35.25
2022-10-05T14:16:22.307Z,35.37
2022-10-05T14:21:28.397Z,35.85
2022-10-05T14:26:37.574Z,32.27
2022-10-05T14:31:50.874Z,33.03
2022-10-05T14:36:59.890Z,33.42
2022-10-05T14:42:15.623Z,33.43
2022-10-05T14:47:23.937Z,31.68
2022-10-05T14:52:32.839Z,27.87
2022-10-05T14:57:44.917Z,27.06
2022-10-05T15:03:00.884Z,25.55
2022-10-05T15:08:15.789Z,24.49
2022-10-05T15:13:20.898Z,24.05
2022-10-05T15:18:38.003Z,22.92
2022-10-05T15:23:47.453Z,22.63
2022-10-05T15:28:57.508Z,21.71
2022-10-05T15:34:08.110Z,21.53
2022-10-05T15:39:24.098Z,21.20
2022-10-05T15:44:38.846Z,20.81
2022-10-05T15:49:52.504Z,20.55
2022-10-05T15:55:23.253Z,20.00
2022-10-05T16:00:30.191Z,19.69
2022-10-05T16:06:02.399Z,19.50
2022-10-05T16:11:14.625Z,19.74
2022-10-05T16:16:32.226Z,19.75
2022-10-05T16:21:45.971Z,20.00
2022-10-05T16:26:59.956Z,19.79
2022-10-05T16:32:13.168Z,19.60
2022-10-05T16:37:28.290Z,19.58
2022-10-05T16:42:47.253Z,19.31
2022-10-05T16:47:56.619Z,19.15
2022-10-05T16:53:06.710Z,18.95
2022-10-05T16:58:22.530Z,19.20
2022-10-05T17:03:34.265Z,18.86
2022-10-05T17:08:49.771Z,18.94
2022-10-05T17:14:08.167Z,18.82
2022-10-05T17:19:27.743Z,18.56
2022-10-05T17:24:47.937Z,18.31
2022-10-05T17:29:53.735Z,18.30
2022-10-05T17:35:18.935Z,17.70
2022-10-05T17:40:38.594Z,17.23
2022-10-05T17:46:07.284Z,17.14
2022-10-05T17:51:36.310Z,17.38
2022-10-05T17:57:23.731Z,17.49
2022-10-05T18:02:43.729Z,17.58
2022-10-05T18:07:48.642Z,17.55
2022-10-05T18:12:52.591Z,17.69
2022-10-05T18:17:59.656Z,17.62
2022-10-05T18:23:35.472Z,17.29
2022-10-05T18:28:53.624Z,17.52
2022-10-05T18:34:26.211Z,17.28
2022-10-05T18:39:48.616Z,16.57
2022-10-05T18:44:56.691Z,17.03
2022-10-05T18:50:14.167Z,15.95
2022-10-05T18:55:22.615Z,14.90
2022-10-05T19:00:26.866Z,15.73
2022-10-05T19:05:49.031Z,14.69
2022-10-05T19:10:56.311Z,15.25
2022-10-05T19:16:11.494Z,14.48
2022-10-05T19:21:26.248Z,13.93
2022-10-05T19:26:37.596Z,13.99
2022-10-05T19:31:44.891Z,14.78
2022-10-05T19:36:59.280Z,14.97
2022-10-05T19:42:16.093Z,14.93
2022-10-05T19:47:31.288Z,14.35
2022-10-05T19:52:47.670Z,14.36
2022-10-05T19:57:54.088Z,14.66
2022-10-05T20:03:11.908Z,14.25
2022-10-05T20:08:18.890Z,13.66
2022-10-05T20:13:23.246Z,13.45
2022-10-05T20:18:57.599Z,13.74
2022-10-05T20:24:14.002Z,13.59
2022-10-05T20:29:16.562Z,13.15
2022-10-05T20:34:19.162Z,13.71
2022-10-05T20:39:23.088Z,13.81
2022-10-05T20:44:25.784Z,13.75
2022-10-05T20:49:28.634Z,13.63
2022-10-05T20:54:32.962Z,13.15
2022-10-05T20:59:36.436Z,13.53
2022-10-05T21:04:41.432Z,14.59
2022-10-05T21:09:46.657Z,15.41
2022-10-05T21:14:49.282Z,16.01
2022-10-05T21:19:52.578Z,16.44
2022-10-05T21:24:56.602Z,16.66
2022-10-05T21:29:59.222Z,16.78
2022-10-05T21:35:01.856Z,17.06
2022-10-05T21:40:06.669Z,17.03
2022-10-05T21:45:10.705Z,16.99
2022-10-05T21:50:13.418Z,17.10
2022-10-05T21:55:18.151Z,17.18
2022-10-05T22:00:20.812Z,17.37
2022-10-05T22:05:23.537Z,17.54
2022-10-05T22:10:28.940Z,17.77
2022-10-05T22:15:32.683Z,17.18
2022-10-05T22:20:35.665Z,17.53
2022-10-05T22:25:40.142Z,17.64
2022-10-05T22:30:44.409Z,17.67
2022-10-05T22:35:46.926Z,17.95
2022-10-05T22:40:50.919Z,17.54
2022-10-05T22:45:53.850Z,17.58
2022-10-05T22:50:56.459Z,17.82
2022-10-05T22:56:05.335Z,17.81
2022-10-05T23:01:10.363Z,17.34
2022-10-05T23:06:14.551Z,17.25
2022-10-05T23:11:21.275Z,17.39
2022-10-05T23:16:25.454Z,17.34
2022-10-05T23:21:29.621Z,17.00
2022-10-05T23:26:33.838Z,15.80
2022-10-05T23:31:36.967Z,16.37
2022-10-05T23:36:39.570Z,16.42
2022-10-05T23:41:44.460Z,15.66
2022-10-05T23:46:47.195Z,15.29
2022-10-05T23:51:49.838Z,14.80
2022-10-05T23:56:53.824Z,14.97
